Create Custom Reports and Graphics: Custom Report

Kelseyville-South

Current Conditions

9/28/21 12:45 PM (-07:00)
Updated Every 15 Minutes
Rain 24Hr 0.01 In
Temp 67.2 °F   1.0
RH 34 %   33
Dew Pt 37.8 °F   19.0
Wind Spd 5.6 mph   1.5
Wind Dir NNE | 21 °
Wind Gust 12.1 mph   2.0
Solar Rad 864 W/m2   375
Leaf Wet 0.0 mins
BatVolt 13.5 V

Today & Yesterday

Kelseyville-South

9/28/21 12:45 PM (-07:00)
Updated Every 15 Minutes
Daily Max Temp 67.9 °F   1.5
Time of Max Temp 1238
Daily Min Temp 41.6 °F   1.1
Time of Min Temp 0737
Daily Max Wind 12.1 mph   2.7
Time of Max Wind 1238
Max Wind Dir NNE | 33 °
Daily Rain 0.00 In
Daily ETo 0.048 in   0.009
Daily Leaf Wet Hrs 0.2 hrs
Yesterday's Max Temp 70.7 °F
Yesterday’s Min Temp 42.7 °F
Yesterday's Max Wind 19.8 mph
Yesterday's Rainfall 0.01 In
Yesterday's ETo 0.09 In
Leaf Wet Hrs Yest 3.6 Hours

Last 48 Hours

Kelseyville-South

Hourly Data | America/Los_Angeles
as of 9/28/21 12:49 PM PDT
Date & Time Temp (°F) RH (%) Dew Pt (°F) Wet Bulb (°F) Wind Dir (°) Wind Spd (mph) Wind Gust (mph) Wind Gst Dir (°) Solar Rad (W/m2) Leaf Wet (mins) Latest Rain (In) Daily Rain (In) Daily Min Temp (°F) Daily Max Temp (°F) Daily ETo (in) Daily Leaf Wet Hrs (hrs)
9/28/21 - 1200 63.3 37 36.7 49.7 NNE | 33 3.0 7.1 NNE | 32 792 0.0 0.00 0.00 41.6 65.1 0.048 0.2
9/28/21 - 1100 60.3 45 38.8 49.4 SW | 214 1.7 6.4 N | 11 658 0.0 0.00 0.00 41.6 62.0 0.029 0.2
9/28/21 - 1000 56.8 57 41.6 49.2 SE | 141 1.9 4.8 SE | 144 476 0.0 0.00 0.00 41.6 59.0 0.015 0.2
9/28/21 - 0900 50.5 82 45.2 48.3 S | 190 1.2 4.1 S | 187 268 0.0 0.00 0.00 41.6 55.0 0.005 0.2
9/28/21 - 0800 42.7 96 41.6 42.5 SSE | 166 2.4 4.8 SSW | 193 56 10.1 0.00 0.00 41.6 50.8 0.001 0.2
9/28/21 - 0700 43.8 94 42.0 43.3 S | 174 2.3 4.4 SSW | 211 0 0.0 0.00 0.00 42.4 50.8 0.001 0.0
9/28/21 - 0600 47.4 85 43.1 45.7 NW | 324 1.7 5.4 ENE | 58 0 0.0 0.00 0.00 44.7 50.8 0.001 0.0
9/28/21 - 0500 47.8 88 44.5 46.6 ESE | 120 3.3 7.8 WNW | 290 0 0.0 0.00 0.00 44.7 50.8 0.001 0.0
9/28/21 - 0400 48.6 85 44.4 46.9 SE | 139 3.2 9.5 SE | 125 0 0.0 0.00 0.00 44.7 50.8 0.001 0.0
9/28/21 - 0300 45.8 94 44.2 45.4 SSW | 201 3.9 7.1 W | 265 0 0.0 0.00 0.00 44.7 47.6 0.000 0.0
9/28/21 - 0200 46.5 92 44.4 45.9 S | 175 3.0 6.4 SE | 129 0 0.0 0.00 0.00 44.7 47.6 0.000 0.0
9/28/21 - 0100 49.2 86 45.2 47.7 WSW | 250 2.9 6.8 WNW | 289 0 0.0 0.00 0.01 42.7 70.7 0.092 3.6
9/28/21 - 0000 52.3 81 46.6 49.9 WNW | 290 4.2 9.8 WNW | 282 0 0.0 0.00 0.01 42.7 70.7 0.092 3.6
9/27/21 - 2300 53.9 79 47.6 51.1 WNW | 285 7.0 16.5 WNW | 289 0 0.0 0.00 0.01 42.7 70.7 0.091 3.6
9/27/21 - 2200 55.2 79 48.9 52.5 WNW | 284 8.1 17.5 WSW | 252 0 0.0 0.00 0.01 42.7 70.7 0.091 3.6
9/27/21 - 2100 56.2 79 49.9 53.4 WNW | 289 10.7 17.2 WNW | 286 0 0.0 0.00 0.01 42.7 70.7 0.090 3.6
9/27/21 - 2000 57.0 79 50.4 54.1 WNW | 285 9.7 19.8 WNW | 296 0 0.0 0.00 0.01 42.7 70.7 0.089 3.6
9/27/21 - 1900 58.5 86 54.2 57.1 WNW | 288 10.8 19.2 NW | 306 15 40.1 0.00 0.01 42.7 70.7 0.087 3.6
9/27/21 - 1800 61.7 93 59.7 62.2 WSW | 256 8.1 16.2 W | 268 139 60.0 0.00 0.01 42.7 70.7 0.086 3.0
9/27/21 - 1700 62.9 92 60.4 63.0 SW | 222 5.8 11.8 SW | 219 107 53.5 0.01 0.01 42.7 70.7 0.083 2.0
9/27/21 - 1600 64.8 83 59.6 63.0 SW | 228 8.8 15.5 SW | 225 201 55.1 0.00 0.00 42.7 70.7 0.080 1.1
9/27/21 - 1500 67.4 73 58.4 62.9 WSW | 243 10.4 17.8 WSW | 256 298 9.4 0.00 0.00 42.7 70.7 0.075 0.2
9/27/21 - 1400 68.7 66 57.1 62.3 WSW | 249 9.6 17.5 W | 267 548 0.0 0.00 0.00 42.7 70.7 0.066 0.0
9/27/21 - 1300 68.1 66 56.6 61.8 WSW | 251 8.3 14.8 WSW | 250 467 0.0 0.00 0.00 42.7 69.8 0.052 0.0
9/27/21 - 1200 68.0 64 55.3 60.9 WSW | 250 8.4 14.8 WSW | 246 723 0.0 0.00 0.00 42.7 69.3 0.039 0.0
9/27/21 - 1100 64.6 72 55.5 60.0 WSW | 250 6.8 14.2 WSW | 239 519 0.0 0.00 0.00 42.7 66.8 0.021 0.0
9/27/21 - 1000 63.0 76 55.2 59.3 WSW | 254 3.5 11.8 W | 274 247 0.0 0.00 0.00 42.7 63.8 0.010 0.0
9/27/21 - 0900 58.9 85 54.4 57.3 NNE | 33 0.5 3.1 NNE | 14 232 0.0 0.00 0.00 42.7 63.0 0.004 0.0
9/27/21 - 0800 48.0 95 46.7 48.0 SSE | 166 2.3 4.1 SSE | 151 39 0.0 0.00 0.00 42.7 51.6 0.000 0.0
9/27/21 - 0700 48.7 91 46.2 48.0 SE | 125 0.7 3.1 ESE | 121 0 0.0 0.00 0.00 42.7 50.1 0.000 0.0
9/27/21 - 0600 46.7 93 44.6 46.2 SE | 145 0.9 3.4 SE | 124 0 0.0 0.00 0.00 42.7 49.3 0.000 0.0
9/27/21 - 0500 43.3 89 40.3 42.2 SE | 136 0.4 3.4 NNE | 24 0 0.0 0.00 0.00 42.7 47.1 0.000 0.0
9/27/21 - 0400 44.3 88 40.9 43.0 SSE | 162 0.1 2.1 SSE | 148 0 0.0 0.00 0.00 44.0 47.1 0.000 0.0
9/27/21 - 0300 45.5 86 41.5 43.9 ESE | 119 1.1 4.1 SE | 127 0 0.0 0.00 0.00 44.6 47.1 0.000 0.0
9/27/21 - 0200 46.0 86 42.1 44.5 SE | 129 1.2 3.8 ESE | 118 0 0.0 0.00 0.00 45.4 47.1 0.000 0.0
9/27/21 - 0100 49.0 82 43.7 46.8 SE | 136 1.6 4.4 SE | 132 0 0.0 0.00 0.00 43.2 80.8 0.194 0.0
9/27/21 - 0000 51.2 79 44.8 48.4 ESE | 123 2.7 4.1 SE | 125 0 0.0 0.00 0.00 43.2 80.8 0.194 0.0
9/26/21 - 2300 56.0 70 46.4 51.4 S | 190 3.6 6.4 SW | 214 0 0.0 0.00 0.00 43.2 80.8 0.194 0.0
9/26/21 - 2200 59.0 68 48.5 53.7 SSW | 207 5.6 10.5 SSW | 207 0 0.0 0.00 0.00 43.2 80.8 0.193 0.0
9/26/21 - 2100 62.0 60 48.1 54.6 SW | 224 6.2 12.1 SW | 232 0 0.0 0.00 0.00 43.2 80.8 0.193 0.0
9/26/21 - 2000 65.5 49 45.9 54.6 SW | 220 6.2 11.5 SSW | 211 1 0.0 0.00 0.00 43.2 80.8 0.192 0.0
9/26/21 - 1900 71.6 38 44.8 56.0 WSW | 252 7.3 16.8 SW | 227 80 0.0 0.00 0.00 43.2 80.8 0.190 0.0
9/26/21 - 1800 76.3 35 46.7 58.1 WSW | 247 9.7 15.8 SW | 223 290 0.0 0.00 0.00 43.2 80.8 0.185 0.0
9/26/21 - 1700 79.1 27 41.8 56.7 WSW | 252 9.1 14.8 W | 268 500 0.0 0.00 0.00 43.2 80.8 0.173 0.0
9/26/21 - 1600 79.8 20 35.2 54.4 W | 259 8.4 13.8 W | 281 690 0.0 0.00 0.00 43.2 80.8 0.154 0.0
9/26/21 - 1500 78.7 21 34.6 54.0 SW | 235 8.9 16.2 SW | 233 806 0.0 0.00 0.00 43.2 79.7 0.131 0.0
9/26/21 - 1400 77.2 30 43.1 56.7 WSW | 252 10.4 16.5 W | 267 869 0.0 0.00 0.00 43.2 79.2 0.104 0.0
9/26/21 - 1300 77.2 31 44.1 57.2 W | 275 6.8 14.5 WSW | 256 870 0.0 0.00 0.00 43.2 79.2 0.077 0.0
9/26/21 - 1200 72.4 41 47.4 57.5 NNE | 22 3.0 7.1 N | 4 795 0.0 0.00 0.00 43.2 74.5 0.051 0.0
Max 79.8 96 60.4 63.0 - 10.8 19.8 - 870 60.0 0.01 0.01 45.4 80.8 0.194 3.6
Avg 58.4 71 46.9 52.4 - 5.0 10.2 - 218 4.7 0.00 - - - - -
Min 42.7 20 34.6 42.2 - 0.1 2.1 - 0 0.0 0.00 0.00 41.6 47.1 0.000 0.0
Total - - - - - - - - - - 0.01 - - - - -

Last 30 Days

Kelseyville-South

Daily Data | America/Los_Angeles
as of 9/28/21 12:49 PM PDT
Date Daily Max Temp (°F) Time of Max Temp Daily Min Temp (°F) Time of Min Temp Daily Rain (In) Monthly Rain (In) Seasonal Rainfall (In) Wind Spd (mph) Daily Max Wind (mph) Time of Max Wind Max Wind Dir (°) Daily ETo (in) 7 Day ETo (in) Daily Solar Rad (Cal/cm2) Dew Pt (°F) Max RH (%) Min RH (%) Daily Leaf Wet Hrs (hrs) Hrs 70-85F (hrs) Hrs > 95F (hrs) Powdery Mildew Stress (pts) GDDs (DL) GDDs (Mx/Mn) Seas GDDs (DL) Seas GDDs (Smpl) Hrs <= 32F (hrs) Hrs <= 28F (hrs) Chilling <=45F (hrs) Chill Hrs 32-45F (hrs) Utah Chilling (Units) Chill Portions Degree Hrs (hrs) Max 1 Min Rain (In) Max 1 Min Rain Time Max 15 Min Rain (In) Max 15 Min Precip Time Max 60 Min Rain (In) Max 60 Min Rain Time Bat Volt Min Day (V)
9/27/21 70.7 1337 42.7 0424 0.01 0.13 0.13 5.4 19.8 1954 WNW | 296 0.092 1.29 304 50.7 98 61 3.6 0.08 0.00 10 7.6 6.7 3,383 3,171 0.0 0.0 2.4 2.4 1.0 0 12.2 0.01 1624 0.01 1638 0.01 1723 12.7
9/26/21 80.8 1542 43.2 0727 0.00 0.12 0.12 4.6 16.8 1805 SW | 227 0.194 1.40 548 44.3 91 13 0.0 7.85 0.00 20 12.4 12.0 3,376 3,164 0.0 0.0 2.1 2.1 -5.0 0 95.5 - - - - - - 12.7
9/25/21 86.1 1435 45.3 0548 0.00 0.12 0.12 3.8 16.8 1501 WSW | 238 0.204 1.36 543 41.7 78 17 0.0 3.61 0.00 0 16.6 15.7 3,363 3,152 0.0 0.0 0.0 0.0 -8.0 0 164.1 - - - - - - 12.7
9/24/21 95.1 1531 47.8 0716 0.00 0.12 0.12 2.6 16.5 1746 S | 190 0.200 1.24 530 39.3 76 9 0.0 2.69 0.08 0 19.5 21.5 3,347 3,136 0.0 0.0 0.0 0.0 -10.5 0 232.2 - - - - - - 12.7
9/23/21 93.5 1755 46.3 0644 0.00 0.12 0.12 2.1 11.8 1305 NNE | 27 0.181 1.25 536 39.0 77 9 0.0 3.14 0.00 0 19.4 19.9 3,327 3,115 0.0 0.0 0.0 0.0 -9.5 0 227.1 - - - - - - 12.7
9/22/21 91.1 1613 48.8 0714 0.00 0.12 0.12 3.0 14.5 1410 S | 180 0.206 1.28 546 36.5 72 8 0.0 2.84 0.00 0 18.8 19.9 3,308 3,095 0.0 0.0 0.0 0.0 -10.0 0 214.2 - - - - - - 12.7
9/21/21 94.6 1520 44.1 0653 0.00 0.12 0.12 3.2 20.5 1522 W | 272 0.217 1.29 547 34.6 70 9 0.0 2.21 0.00 0 19.8 19.4 3,289 3,075 0.0 0.0 0.8 0.8 -8.0 0 243.0 - - - - - - 12.7
9/20/21 90.2 1614 40.4 0716 0.00 0.12 0.12 2.5 12.5 1614 SSE | 166 0.197 1.29 570 34.6 97 5 3.9 2.96 0.00 0 15.6 15.3 3,269 3,056 0.0 0.0 3.7 3.7 -5.0 0 166.3 - - - - - - 12.7
9/19/21 75.0 1737 48.0 0034 0.00 0.12 0.12 3.5 15.8 1200 NW | 322 0.157 1.31 533 49.5 98 34 3.3 5.49 0.00 0 11.0 11.5 3,254 3,040 0.0 0.0 0.0 0.0 -7.0 0 52.6 - - - - - - 12.7
9/18/21 68.1 1248 47.3 0506 0.00 0.12 0.12 5.7 19.8 1420 S | 190 0.087 1.37 311 55.1 97 68 1.1 0.00 0.00 0 9.6 7.7 3,243 3,029 0.0 0.0 0.0 0.0 -5.5 0 4.2 - - - - - - 12.7
9/17/21 87.3 1434 46.9 0642 0.00 0.12 0.12 4.1 18.8 1711 SW | 230 0.209 1.50 565 48.1 93 20 0.0 4.34 0.00 0 15.9 17.1 3,233 3,021 0.0 0.0 0.0 0.0 -9.0 0 147.0 - - - - - - 12.7
9/16/21 85.8 1346 47.4 0645 0.00 0.12 0.12 3.4 15.5 1430 W | 270 0.206 1.50 563 47.4 89 17 0.0 4.36 0.00 0 16.9 16.6 3,217 3,004 0.0 0.0 0.0 0.0 -10.5 0 160.4 - - - - - - 12.7
9/15/21 90.8 1455 49.7 0706 0.00 0.12 0.12 3.8 17.5 1539 W | 261 0.218 1.48 555 44.2 76 13 0.0 3.50 0.00 0 19.5 20.2 3,200 2,988 0.0 0.0 0.0 0.0 -11.5 0 207.4 - - - - - - 12.7
9/14/21 96.9 1515 48.1 0642 0.00 0.12 0.12 3.0 16.8 1654 W | 266 0.219 1.51 557 40.2 78 9 0.0 2.30 2.18 0 21.8 22.5 3,181 2,967 0.0 0.0 0.0 0.0 -11.5 0 260.7 - - - - - - 12.7
9/13/21 93.9 1553 48.5 0610 0.00 0.12 0.12 2.7 14.2 1811 SW | 231 0.210 1.56 574 41.2 81 12 0.0 3.15 0.00 0 20.9 21.2 3,159 2,945 0.0 0.0 0.0 0.0 -12.0 0 245.7 - - - - - - 12.7
9/12/21 94.0 1517 51.4 0623 0.00 0.12 0.12 3.0 20.9 1515 NW | 304 0.222 1.60 564 43.6 84 11 0.0 3.19 0.00 0 21.3 22.7 3,138 2,924 0.0 0.0 0.0 0.0 -13.0 0 239.8 - - - - - - 12.7
9/11/21 90.4 1638 49.9 0657 0.00 0.12 0.12 2.7 18.8 1634 W | 272 0.214 1.61 591 48.7 96 17 0.0 3.36 0.00 0 19.1 20.1 3,117 2,901 0.0 0.0 0.0 0.0 -11.5 0 200.1 - - - - - - 12.7
9/10/21 86.9 1614 57.0 0045 0.09 0.12 0.12 3.3 17.5 1327 SW | 236 0.213 1.62 601 54.3 99 19 7.0 4.98 0.00 0 20.3 22.0 3,098 2,881 0.0 0.0 0.0 0.0 -17.0 0 168.3 0.01 0637 0.04 0500 0.05 0524 12.7
9/9/21 96.4 1321 58.3 0601 0.03 0.03 0.03 3.5 17.2 1409 WSW | 237 0.189 1.64 366 41.9 89 5 1.1 5.54 0.73 0 24.6 27.4 3,077 2,859 0.0 0.0 0.0 0.0 -19.0 0 262.7 0.01 0030 0.01 0044 0.02 2334 12.7
9/8/21 100.2 1538 58.1 0701 0.00 0.00 0.00 2.9 15.8 1439 WSW | 248 0.242 1.66 579 42.0 64 8 0.0 3.21 4.66 0 28.2 29.1 3,053 2,831 0.0 0.0 0.0 0.0 -19.5 0 333.6 - - - - - - 12.7
9/7/21 98.4 1521 52.1 0633 0.00 0.00 0.00 4.2 20.5 1744 WNW | 290 0.268 1.65 606 32.9 55 3 0.0 3.87 3.85 0 25.3 25.2 3,025 2,802 0.0 0.0 0.0 0.0 -16.0 0 315.0 - - - - - - 12.7
9/6/21 97.0 1501 45.6 0641 0.00 0.00 0.00 3.4 16.8 1400 SW | 228 0.253 1.65 627 31.8 65 6 0.0 2.66 3.17 0 22.0 21.3 2,999 2,777 0.0 0.0 0.0 0.0 -10.5 0 271.0 - - - - - - 12.7
9/5/21 97.0 1722 45.7 0653 0.00 0.00 0.00 2.5 14.5 1811 W | 267 0.229 1.68 633 32.6 72 3 0.0 2.94 1.72 10 20.6 21.3 2,977 2,756 0.0 0.0 0.0 0.0 -9.0 0 253.6 - - - - - - 12.7
9/4/21 94.5 1609 45.8 0706 0.00 0.00 0.00 2.6 14.8 1837 SW | 218 0.231 1.69 638 35.3 80 3 0.0 2.93 0.00 20 20.0 20.1 2,957 2,734 0.0 0.0 0.0 0.0 -10.0 0 235.3 - - - - - - 12.7
9/3/21 90.1 1642 44.9 0650 0.00 0.00 0.00 3.0 19.2 1550 WSW | 247 0.231 1.68 637 41.7 92 9 0.0 3.15 0.00 30 18.3 17.5 2,937 2,714 0.0 0.0 0.1 0.1 -10.0 0 197.4 - - - - - - 12.7
9/2/21 85.6 1548 47.7 0651 0.00 0.00 0.00 3.0 16.2 1653 WSW | 241 0.211 1.69 608 47.1 88 20 0.0 9.53 0.00 40 16.0 16.6 2,919 2,697 0.0 0.0 0.0 0.0 -10.0 0 147.1 - - - - - - 12.7
9/1/21 82.7 1249 44.7 0634 0.00 0.00 0.00 4.3 18.2 1724 WSW | 248 0.231 1.72 644 41.9 78 26 0.0 9.60 0.00 20 14.8 13.7 2,903 2,680 0.0 0.0 0.4 0.4 -7.5 0 126.1 - - - - - - 12.7
8/31/21 93.6 1535 46.2 0629 0.00 0.00 0.00 3.9 17.5 1548 WSW | 239 0.266 1.73 665 34.4 70 7 0.0 3.56 0.00 0 19.8 19.9 2,888 2,666 0.0 0.0 0.0 0.0 -10.5 - 229.6 - - - - - - 12.7
8/30/21 99.6 1603 49.5 0641 0.00 0.00 0.00 3.7 18.8 1653 W | 266 0.278 1.72 666 33.6 66 3 0.0 2.25 4.72 0 23.9 24.5 2,868 2,647 0.0 0.0 0.0 0.0 -13.0 - 308.8 - - - - - - 12.7
8/29/21 101.1 1615 52.6 0642 0.00 0.00 0.00 2.9 18.2 1651 SW | 226 0.246 1.68 611 37.6 68 7 0.0 2.59 5.27 0 25.9 26.9 2,844 2,622 0.0 0.0 0.0 0.0 -15.5 - 326.6 - - - - - - 12.7
Max 101.1 - 58.3 - 0.09 0.13 - 5.7 20.9 - - 0.278 - 666 55.1 99 68 7.0 9.60 5.27 - 28.2 29.1 - - 0.0 0.0 3.7 3.7 1.0 0 333.6 0.01 - 0.04 - 0.05 - 12.7
Avg - - - - - 0.07 - 3.4 - - - - - - 41.5 - - - 3.73 0.88 - 18.8 19.2 - - 0.0 0.0 0.3 0.3 -10.5 0 - - - - - - - -
Min 68.1 - 40.4 - 0.00 0.00 - 2.1 11.8 - - 0.087 - 304 31.8 55 3 0.0 0.00 0.00 - 7.6 6.7 - - 0.0 0.0 0.0 0.0 -19.5 0 4.2 0.01 - 0.01 - 0.01 - 12.7
Total - - - - - - - - - - - - - - - - - - 111.89 26.36 - 565.3 575.7 - - 0.0 0.0 9.4 9.4 -314.0 - - - - - - - - -